nws-alerts: Checking more than four warning/county codes can delay the loading of your pages. You should use a cron job to get the data.
EllijayWeather Station Historical Data
Daily Summary for September 17, 2018 Units:  English    Metric   Both
Daily Weekly Monthly Yearly Custom
  High: Low: Average:
Temperature: 80.4 °F 69.3 °F 73.1 °F
Dew Point: 73.2 °F 65.5 °F 68.4 °F
Humidity: 89% 75% 85%
Wind Speed: 0mph 0mph 0mph
Wind Gust: 0mph - -
Wind- - North
Pressure: 29.99 in 29.86 in -
Precipitation: 0.01 in    
Historical Graphs
 
 
Tabular Data for September 17, 2018
Time Temperature Dew Point Pressure Wind Wind Speed Wind Gust Humidity Rainfall Rate (Hourly) solar
00:04 70.9 °F 67.5 °F 29.86 in Calm     89% 0 in meteobridge W/m2
00:09 70.7 °F 67.3 °F 29.86 in Calm     89% 0 in meteobridge W/m2
00:14 70.7 °F 67.3 °F 29.86 in Calm     89% 0 in meteobridge W/m2
00:19 70.5 °F 67.1 °F 29.86 in Calm     89% 0 in meteobridge W/m2
00:24 70.5 °F 67.1 °F 29.86 in Calm     89% 0 in meteobridge W/m2
00:29 70.5 °F 67.1 °F 29.86 in Calm     89% 0 in meteobridge W/m2
00:34 70.5 °F 67.1 °F 29.86 in Calm     89% 0 in meteobridge W/m2
00:39 70.5 °F 67.1 °F 29.86 in Calm     89% 0 in meteobridge W/m2
00:44 70.3 °F 66.9 °F 29.86 in Calm     89% 0 in meteobridge W/m2
00:49 70.3 °F 66.9 °F 29.86 in Calm     89% 0 in meteobridge W/m2
00:54 70.3 °F 66.9 °F 29.86 in Calm     89% 0 in meteobridge W/m2
00:59 70.2 °F 66.7 °F 29.86 in Calm     89% 0 in meteobridge W/m2
01:04 70.2 °F 66.7 °F 29.86 in Calm     89% 0 in meteobridge W/m2
01:09 70.2 °F 66.7 °F 29.86 in Calm     89% 0 in meteobridge W/m2
01:14 70.2 °F 66.7 °F 29.86 in Calm     89% 0 in meteobridge W/m2
01:19 70.2 °F 66.7 °F 29.86 in Calm     89% 0 in meteobridge W/m2
01:24 70 °F 66.6 °F 29.87 in Calm     89% 0 in meteobridge W/m2
01:29 70 °F 66.6 °F 29.87 in Calm     89% 0 in meteobridge W/m2
01:34 70 °F 66.6 °F 29.87 in Calm     89% 0 in meteobridge W/m2
01:38 70 °F 66.6 °F 29.87 in Calm     89% 0 in meteobridge W/m2
01:44 70 °F 66.6 °F 29.87 in Calm     89% 0 in meteobridge W/m2
01:49 70 °F 66.6 °F 29.87 in Calm     89% 0 in meteobridge W/m2
01:54 69.8 °F 66.4 °F 29.86 in Calm     89% 0 in meteobridge W/m2
01:59 69.8 °F 66.4 °F 29.87 in Calm     89% 0 in meteobridge W/m2
02:04 69.8 °F 66.4 °F 29.87 in Calm     89% 0 in meteobridge W/m2
02:09 69.6 °F 66.2 °F 29.87 in Calm     89% 0 in meteobridge W/m2
02:14 69.6 °F 66.2 °F 29.87 in Calm     89% 0 in meteobridge W/m2
02:19 69.6 °F 66.2 °F 29.87 in Calm     89% 0 in meteobridge W/m2
02:24 69.6 °F 66.2 °F 29.87 in Calm     89% 0 in meteobridge W/m2
02:29 69.6 °F 66.2 °F 29.87 in Calm     89% 0 in meteobridge W/m2
02:34 69.6 °F 66.2 °F 29.88 in Calm     89% 0 in meteobridge W/m2
02:39 69.6 °F 66.2 °F 29.88 in Calm     89% 0 in meteobridge W/m2
02:44 69.6 °F 66.2 °F 29.88 in Calm     89% 0 in meteobridge W/m2
02:49 69.6 °F 66.2 °F 29.88 in Calm     89% 0 in meteobridge W/m2
02:54 69.6 °F 66.2 °F 29.88 in Calm     89% 0 in meteobridge W/m2
02:59 69.6 °F 66.2 °F 29.88 in Calm     89% 0 in meteobridge W/m2
03:04 69.6 °F 66.2 °F 29.88 in Calm     89% 0 in meteobridge W/m2
03:09 69.6 °F 66.2 °F 29.88 in Calm     89% 0 in meteobridge W/m2
03:14 69.6 °F 66.2 °F 29.88 in Calm     89% 0 in meteobridge W/m2
03:19 69.6 °F 66.2 °F 29.88 in Calm     89% 0 in meteobridge W/m2
03:24 69.6 °F 66.2 °F 29.88 in Calm     89% 0 in meteobridge W/m2
03:28 69.6 °F 66.2 °F 29.88 in Calm     89% 0 in meteobridge W/m2
03:34 69.6 °F 66.2 °F 29.88 in Calm     89% 0 in meteobridge W/m2
03:39 69.6 °F 66.2 °F 29.88 in Calm     89% 0 in meteobridge W/m2
03:44 69.6 °F 66.2 °F 29.88 in Calm     89% 0 in meteobridge W/m2
03:49 69.6 °F 66.2 °F 29.88 in Calm     89% 0 in meteobridge W/m2
03:54 69.6 °F 66.2 °F 29.88 in Calm     89% 0 in meteobridge W/m2
03:59 69.6 °F 66.2 °F 29.88 in Calm     89% 0 in meteobridge W/m2
04:04 69.6 °F 66.2 °F 29.88 in Calm     89% 0 in meteobridge W/m2
04:09 69.6 °F 66.2 °F 29.88 in Calm     89% 0 in meteobridge W/m2
04:14 69.6 °F 66.2 °F 29.88 in Calm     89% 0 in meteobridge W/m2
04:19 69.6 °F 66.2 °F 29.88 in Calm     89% 0 in meteobridge W/m2
04:24 69.6 °F 66.2 °F 29.88 in Calm     89% 0 in meteobridge W/m2
04:29 69.6 °F 66.2 °F 29.88 in Calm     89% 0 in meteobridge W/m2
04:34 69.6 °F 66.2 °F 29.88 in Calm     89% 0 in meteobridge W/m2
04:39 69.6 °F 66.2 °F 29.88 in Calm     89% 0 in meteobridge W/m2
04:44 69.6 °F 66.2 °F 29.88 in Calm     89% 0 in meteobridge W/m2
04:49 69.6 °F 66.2 °F 29.88 in Calm     89% 0 in meteobridge W/m2
04:54 69.4 °F 65.7 °F 29.89 in Calm     88% 0 in meteobridge W/m2
04:59 69.4 °F 65.7 °F 29.89 in Calm     88% 0 in meteobridge W/m2
05:04 69.6 °F 65.8 °F 29.89 in Calm     88% 0 in meteobridge W/m2
05:09 69.6 °F 65.8 °F 29.89 in Calm     88% 0 in meteobridge W/m2
05:14 69.6 °F 65.8 °F 29.89 in Calm     88% 0 in meteobridge W/m2
05:19 69.6 °F 65.8 °F 29.89 in Calm     88% 0 in meteobridge W/m2
05:24 69.6 °F 65.8 °F 29.89 in Calm     88% 0 in meteobridge W/m2
05:29 69.6 °F 65.8 °F 29.89 in Calm     88% 0 in meteobridge W/m2
05:34 69.6 °F 65.8 °F 29.89 in Calm     88% 0 in meteobridge W/m2
05:39 69.6 °F 65.8 °F 29.89 in Calm     88% 0 in meteobridge W/m2
05:44 69.4 °F 65.7 °F 29.89 in Calm     88% 0 in meteobridge W/m2
05:49 69.4 °F 65.7 °F 29.90 in Calm     88% 0 in meteobridge W/m2
05:54 69.4 °F 65.7 °F 29.90 in Calm     88% 0 in meteobridge W/m2
05:59 69.4 °F 65.7 °F 29.90 in Calm     88% 0 in meteobridge W/m2
06:04 69.4 °F 65.7 °F 29.90 in Calm     88% 0 in meteobridge W/m2
06:09 69.4 °F 65.7 °F 29.90 in Calm     88% 0 in meteobridge W/m2
06:14 69.4 °F 65.7 °F 29.90 in Calm     88% 0 in meteobridge W/m2
06:19 69.4 °F 65.7 °F 29.90 in Calm     88% 0 in meteobridge W/m2
06:24 69.4 °F 65.7 °F 29.91 in Calm     88% 0 in meteobridge W/m2
06:29 69.4 °F 65.7 °F 29.91 in Calm     88% 0 in meteobridge W/m2
06:34 69.3 °F 65.5 °F 29.91 in Calm     88% 0 in meteobridge W/m2
06:39 69.3 °F 65.5 °F 29.91 in Calm     88% 0 in meteobridge W/m2
06:44 69.3 °F 65.5 °F 29.91 in Calm     88% 0 in meteobridge W/m2
06:49 69.3 °F 65.5 °F 29.91 in Calm     88% 0 in meteobridge W/m2
06:54 69.3 °F 65.5 °F 29.91 in Calm     88% 0 in meteobridge W/m2
06:59 69.3 °F 65.5 °F 29.92 in Calm     88% 0 in meteobridge W/m2
07:04 69.3 °F 65.5 °F 29.92 in Calm     88% 0 in meteobridge W/m2
07:09 69.3 °F 65.5 °F 29.92 in Calm     88% 0 in meteobridge W/m2
07:14 69.3 °F 65.5 °F 29.92 in Calm     88% 0 in meteobridge W/m2
07:19 69.3 °F 65.5 °F 29.92 in Calm     88% 0 in meteobridge W/m2
07:24 69.3 °F 65.5 °F 29.92 in Calm     88% 0 in meteobridge W/m2
07:29 69.3 °F 65.5 °F 29.93 in Calm     88% 0 in meteobridge W/m2
07:34 69.3 °F 65.5 °F 29.93 in Calm     88% 0 in meteobridge W/m2
07:39 69.3 °F 65.5 °F 29.93 in Calm     88% 0 in meteobridge W/m2
07:44 69.3 °F 65.5 °F 29.93 in Calm     88% 0 in meteobridge W/m2
07:49 69.3 °F 65.5 °F 29.93 in Calm     88% 0 in meteobridge W/m2
07:54 69.4 °F 65.7 °F 29.93 in Calm     88% 0 in meteobridge W/m2
07:59 69.4 °F 65.7 °F 29.93 in Calm     88% 0 in meteobridge W/m2
08:04 69.4 °F 65.7 °F 29.93 in Calm     88% 0 in meteobridge W/m2
08:09 69.6 °F 65.8 °F 29.93 in Calm     88% 0 in meteobridge W/m2
08:14 69.6 °F 65.8 °F 29.94 in Calm     88% 0 in meteobridge W/m2
08:19 69.8 °F 66 °F 29.94 in Calm     88% 0 in meteobridge W/m2
08:24 69.6 °F 65.8 °F 29.94 in Calm     88% 0 in meteobridge W/m2
08:29 69.8 °F 66 °F 29.94 in Calm     88% 0 in meteobridge W/m2
08:34 69.8 °F 66 °F 29.94 in Calm     88% 0 in meteobridge W/m2
08:39 69.8 °F 66 °F 29.94 in Calm     88% 0 in meteobridge W/m2
08:44 69.6 °F 65.8 °F 29.95 in Calm     88% 0 in meteobridge W/m2
08:49 69.6 °F 65.8 °F 29.95 in Calm     88% 0 in meteobridge W/m2
08:54 69.6 °F 65.8 °F 29.95 in Calm     88% 0 in meteobridge W/m2
08:59 69.8 °F 66 °F 29.95 in Calm     88% 0 in meteobridge W/m2
09:04 70 °F 66.2 °F 29.95 in Calm     88% 0 in meteobridge W/m2
09:09 70 °F 66.2 °F 29.95 in Calm     88% 0 in meteobridge W/m2
09:14 70.2 °F 66 °F 29.95 in Calm     87% 0 in meteobridge W/m2
09:19 70.2 °F 66.4 °F 29.95 in Calm     88% 0 in meteobridge W/m2
09:24 70.3 °F 66.6 °F 29.95 in Calm     88% 0 in meteobridge W/m2
09:29 70.3 °F 66.6 °F 29.96 in Calm     88% 0 in meteobridge W/m2
09:34 70.3 °F 66.6 °F 29.96 in Calm     88% 0 in meteobridge W/m2
09:39 70.5 °F 66.7 °F 29.96 in Calm     88% 0 in meteobridge W/m2
09:44 70.7 °F 66.9 °F 29.96 in Calm     88% 0 in meteobridge W/m2
09:49 70.9 °F 67.1 °F 29.96 in Calm     88% 0 in meteobridge W/m2
09:54 71.1 °F 67.3 °F 29.96 in Calm     88% 0 in meteobridge W/m2
09:59 71.2 °F 67.5 °F 29.96 in Calm     88% 0 in meteobridge W/m2
10:04 71.4 °F 67.6 °F 29.96 in Calm     88% 0 in meteobridge W/m2
10:09 71.8 °F 68 °F 29.96 in Calm     88% 0 in meteobridge W/m2
10:14 72 °F 68.2 °F 29.96 in Calm     88% 0 in meteobridge W/m2
10:19 72.1 °F 68.4 °F 29.96 in Calm     88% 0 in meteobridge W/m2
10:24 72.3 °F 68.5 °F 29.96 in Calm     88% 0 in meteobridge W/m2
10:29 72.7 °F 68.9 °F 29.97 in Calm     88% 0 in meteobridge W/m2
10:34 72.7 °F 68.9 °F 29.97 in Calm     88% 0 in meteobridge W/m2
10:39 72.9 °F 69.1 °F 29.97 in Calm     88% 0 in meteobridge W/m2
10:44 73.2 °F 69.4 °F 29.96 in Calm     88% 0 in meteobridge W/m2
10:49 73.6 °F 69.8 °F 29.97 in Calm     88% 0 in meteobridge W/m2
10:54 73.8 °F 70 °F 29.97 in Calm     88% 0 in meteobridge W/m2
10:59 73.9 °F 70.2 °F 29.97 in Calm     88% 0 in meteobridge W/m2
11:04 73.9 °F 70.2 °F 29.97 in Calm     88% 0 in meteobridge W/m2
11:09 74.1 °F 70 °F 29.97 in Calm     87% 0 in meteobridge W/m2
11:14 74.3 °F 70.2 °F 29.97 in Calm     87% 0 in meteobridge W/m2
11:19 74.5 °F 70.3 °F 29.97 in Calm     87% 0 in meteobridge W/m2
11:24 74.8 °F 70.7 °F 29.97 in Calm     87% 0 in meteobridge W/m2
11:29 75 °F 70.5 °F 29.97 in Calm     86% 0 in meteobridge W/m2
11:34 75.6 °F 71.1 °F 29.97 in Calm     86% 0 in meteobridge W/m2
11:39 75.6 °F 71.1 °F 29.97 in Calm     86% 0 in meteobridge W/m2
11:44 75.6 °F 70.7 °F 29.97 in Calm     85% 0 in meteobridge W/m2
11:49 75.6 °F 70.7 °F 29.97 in Calm     85% 0 in meteobridge W/m2
11:54 75.7 °F 70.9 °F 29.97 in Calm     85% 0 in meteobridge W/m2
11:59 75.9 °F 71.1 °F 29.97 in Calm     85% 0 in meteobridge W/m2
12:04 76.1 °F 70.9 °F 29.97 in Calm     84% 0 in meteobridge W/m2
12:09 76.3 °F 70.7 °F 29.97 in Calm     83% 0 in meteobridge W/m2
12:14 76.6 °F 70.7 °F 29.97 in Calm     82% 0 in meteobridge W/m2
12:19 77 °F 70.7 °F 29.97 in Calm     81% 0 in meteobridge W/m2
12:24 77.5 °F 71.2 °F 29.97 in Calm     81% 0 in meteobridge W/m2
12:29 77.7 °F 71.1 °F 29.97 in Calm     80% 0 in meteobridge W/m2
12:34 77.7 °F 70.7 °F 29.97 in Calm     79% 0 in meteobridge W/m2
12:39 77.7 °F 71.1 °F 29.97 in Calm     80% 0 in meteobridge W/m2
12:44 77.7 °F 71.1 °F 29.97 in Calm     80% 0 in meteobridge W/m2
12:49 77.9 °F 71.6 °F 29.97 in Calm     81% 0 in meteobridge W/m2
12:54 77.9 °F 71.6 °F 29.97 in Calm     81% 0 in meteobridge W/m2
12:59 78.1 °F 71.4 °F 29.97 in Calm     80% 0 in meteobridge W/m2
13:04 78.1 °F 71.8 °F 29.97 in Calm     81% 0 in meteobridge W/m2
13:09 78.1 °F 71.4 °F 29.97 in Calm     80% 0 in meteobridge W/m2
13:14 78.3 °F 71.2 °F 29.97 in Calm     79% 0 in meteobridge W/m2
13:19 78.6 °F 71.2 °F 29.97 in Calm     78% 0 in meteobridge W/m2
13:24 78.6 °F 71.6 °F 29.97 in Calm     79% 0 in meteobridge W/m2
13:29 78.8 °F 72.1 °F 29.96 in Calm     80% 0 in meteobridge W/m2
13:34 78.8 °F 71.8 °F 29.96 in Calm     79% 0 in meteobridge W/m2
13:39 79 °F 72 °F 29.96 in Calm     79% 0 in meteobridge W/m2
13:44 79 °F 72 °F 29.96 in Calm     79% 0 in meteobridge W/m2
13:49 79.2 °F 72.1 °F 29.97 in Calm     79% 0 in meteobridge W/m2
13:54 79.2 °F 72.1 °F 29.96 in Calm     79% 0 in meteobridge W/m2
13:59 79.3 °F 72.3 °F 29.96 in Calm     79% 0 in meteobridge W/m2
14:04 79.5 °F 72.1 °F 29.96 in Calm     78% 0 in meteobridge W/m2
14:09 79.3 °F 72 °F 29.96 in Calm     78% 0 in meteobridge W/m2
14:14 79.2 °F 72.1 °F 29.96 in Calm     79% 0 in meteobridge W/m2
14:19 79 °F 72.3 °F 29.96 in Calm     80% 0 in meteobridge W/m2
14:24 78.6 °F 71.6 °F 29.96 in Calm     79% 0 in meteobridge W/m2
14:29 78.8 °F 72.1 °F 29.96 in Calm     80% 0 in meteobridge W/m2
14:34 79.2 °F 72.1 °F 29.96 in Calm     79% 0 in meteobridge W/m2
14:39 79.5 °F 72.1 °F 29.95 in Calm     78% 0 in meteobridge W/m2
14:44 80.1 °F 72.5 °F 29.95 in Calm     78% 0 in meteobridge W/m2
14:49 80.2 °F 72 °F 29.95 in Calm     76% 0 in meteobridge W/m2
14:54 80.2 °F 72.3 °F 29.95 in Calm     77% 0 in meteobridge W/m2
14:59 80.4 °F 72.1 °F 29.95 in Calm     76% 0 in meteobridge W/m2
15:04 80.2 °F 72.3 °F 29.95 in Calm     77% 0 in meteobridge W/m2
15:09 80.2 °F 72.3 °F 29.95 in Calm     77% 0 in meteobridge W/m2
15:14 80.1 °F 72.1 °F 29.95 in Calm     77% 0 in meteobridge W/m2
15:19 80.2 °F 72 °F 29.95 in Calm     76% 0 in meteobridge W/m2
15:24 80.4 °F 72.5 °F 29.95 in Calm     77% 0 in meteobridge W/m2
15:29 80.2 °F 71.6 °F 29.94 in Calm     75% 0 in meteobridge W/m2
15:34 80.2 °F 72 °F 29.94 in Calm     76% 0 in meteobridge W/m2
15:39 80.1 °F 72.1 °F 29.95 in Calm     77% 0 in meteobridge W/m2
15:44 80.1 °F 72.1 °F 29.95 in Calm     77% 0 in meteobridge W/m2
15:49 79.9 °F 72.3 °F 29.94 in Calm     78% 0 in meteobridge W/m2
15:54 79.5 °F 72.1 °F 29.94 in Calm     78% 0 in meteobridge W/m2
15:59 79.3 °F 72.3 °F 29.95 in Calm     79% 0 in meteobridge W/m2
16:04 79.3 °F 72 °F 29.95 in Calm     78% 0 in meteobridge W/m2
16:09 79.3 °F 72 °F 29.95 in Calm     78% 0 in meteobridge W/m2
16:14 79.5 °F 72.1 °F 29.94 in Calm     78% 0 in meteobridge W/m2
16:19 79.5 °F 71.6 °F 29.94 in Calm     77% 0 in meteobridge W/m2
16:24 79.5 °F 72.5 °F 29.95 in Calm     79% 0 in meteobridge W/m2
16:29 79.5 °F 72.1 °F 29.94 in Calm     78% 0 in meteobridge W/m2
16:34 79.5 °F 73.2 °F 29.94 in Calm     81% 0 in meteobridge W/m2
16:39 79.3 °F 71.4 °F 29.94 in Calm     77% 0 in meteobridge W/m2
16:44 79.5 °F 71.6 °F 29.95 in Calm     77% 0 in meteobridge W/m2
16:49 79.5 °F 71.6 °F 29.95 in Calm     77% 0 in meteobridge W/m2
16:54 79.7 °F 72.1 °F 29.95 in Calm     78% 0 in meteobridge W/m2
16:59 79.9 °F 72.3 °F 29.95 in Calm     78% 0 in meteobridge W/m2
17:04 80.1 °F 71.8 °F 29.94 in Calm     76% 0 in meteobridge W/m2
17:09 80.1 °F 72.1 °F 29.95 in Calm     77% 0 in meteobridge W/m2
17:14 80.1 °F 72.1 °F 29.95 in Calm     77% 0 in meteobridge W/m2
17:19 80.1 °F 71.8 °F 29.95 in Calm     76% 0 in meteobridge W/m2
17:24 79.9 °F 72 °F 29.95 in Calm     77% 0 in meteobridge W/m2
17:29 79.5 °F 72.1 °F 29.95 in Calm     78% 0 in meteobridge W/m2
17:34 79.3 °F 71.4 °F 29.95 in Calm     77% 0 in meteobridge W/m2
17:39 79.3 °F 71.4 °F 29.95 in Calm     77% 0 in meteobridge W/m2
17:44 79.3 °F 71.1 °F 29.95 in Calm     76% 0 in meteobridge W/m2
17:49 79.3 °F 70.7 °F 29.95 in Calm     75% 0 in meteobridge W/m2
17:54 79.5 °F 71.2 °F 29.95 in Calm     76% 0 in meteobridge W/m2
17:59 79.3 °F 71.4 °F 29.95 in Calm     77% 0 in meteobridge W/m2
18:04 79 °F 71.6 °F 29.95 in Calm     78% 0 in meteobridge W/m2
18:09 78.6 °F 72 °F 29.95 in Calm     80% 0 in meteobridge W/m2
18:14 78.4 °F 72.1 °F 29.95 in Calm     81% 0 in meteobridge W/m2
18:19 78.3 °F 72.3 °F 29.95 in Calm     82% 0 in meteobridge W/m2
18:24 78.1 °F 70.7 °F 29.95 in Calm     78% 0 in meteobridge W/m2
18:29 78.1 °F 71.4 °F 29.95 in Calm     80% 0 in meteobridge W/m2
18:34 77.9 °F 71.6 °F 29.95 in Calm     81% 0 in meteobridge W/m2
18:39 77.7 °F 71.4 °F 29.95 in Calm     81% 0.01 in meteobridge W/m2
18:44 77.4 °F 71.4 °F 29.95 in Calm     82% 0.01 in meteobridge W/m2
18:49 77.2 °F 71.2 °F 29.95 in Calm     82% 0.01 in meteobridge W/m2
18:54 77 °F 71.8 °F 29.95 in Calm     84% 0.01 in meteobridge W/m2
18:59 76.6 °F 71.4 °F 29.95 in Calm     84% 0.01 in meteobridge W/m2
19:04 76.3 °F 71.4 °F 29.95 in Calm     85% 0.01 in meteobridge W/m2
19:09 75.9 °F 71.4 °F 29.95 in Calm     86% 0.01 in meteobridge W/m2
19:14 75.6 °F 71.4 °F 29.95 in Calm     87% 0.01 in meteobridge W/m2
19:19 75.2 °F 71.1 °F 29.95 in Calm     87% 0.01 in meteobridge W/m2
19:24 74.8 °F 70.7 °F 29.96 in Calm     87% 0.01 in meteobridge W/m2
19:29 74.5 °F 70.3 °F 29.95 in Calm     87% 0.01 in meteobridge W/m2
19:34 74.1 °F 70 °F 29.96 in Calm     87% 0.01 in meteobridge W/m2
19:39 73.9 °F 69.8 °F 29.95 in Calm     87% 0 in meteobridge W/m2
19:44 73.8 °F 69.6 °F 29.96 in Calm     87% 0 in meteobridge W/m2
19:49 73.6 °F 69.8 °F 29.96 in Calm     88% 0 in meteobridge W/m2
19:54 73.2 °F 69.4 °F 29.96 in Calm     88% 0 in meteobridge W/m2
19:59 73 °F 69.3 °F 29.96 in Calm     88% 0 in meteobridge W/m2
20:04 72.9 °F 69.1 °F 29.96 in Calm     88% 0 in meteobridge W/m2
20:09 72.7 °F 68.9 °F 29.96 in Calm     88% 0 in meteobridge W/m2
20:14 72.7 °F 68.9 °F 29.96 in Calm     88% 0 in meteobridge W/m2
20:19 72.5 °F 68.7 °F 29.96 in Calm     88% 0 in meteobridge W/m2
20:24 72.3 °F 68.5 °F 29.96 in Calm     88% 0 in meteobridge W/m2
20:29 72.3 °F 68.5 °F 29.96 in Calm     88% 0 in meteobridge W/m2
20:34 72.1 °F 68.4 °F 29.96 in Calm     88% 0 in meteobridge W/m2
20:39 72.1 °F 68.4 °F 29.96 in Calm     88% 0 in meteobridge W/m2
20:44 72 °F 68.2 °F 29.96 in Calm     88% 0 in meteobridge W/m2
20:49 72 °F 68.2 °F 29.96 in Calm     88% 0 in meteobridge W/m2
20:54 71.8 °F 68 °F 29.97 in Calm     88% 0 in meteobridge W/m2
20:59 71.8 °F 68 °F 29.97 in Calm     88% 0 in meteobridge W/m2
21:04 71.6 °F 67.8 °F 29.97 in Calm     88% 0 in meteobridge W/m2
21:09 71.6 °F 67.8 °F 29.98 in Calm     88% 0 in meteobridge W/m2
21:14 71.4 °F 67.6 °F 29.98 in Calm     88% 0 in meteobridge W/m2
21:19 71.4 °F 67.6 °F 29.98 in Calm     88% 0 in meteobridge W/m2
21:24 71.2 °F 67.5 °F 29.98 in Calm     88% 0 in meteobridge W/m2
21:29 71.2 °F 67.5 °F 29.98 in Calm     88% 0 in meteobridge W/m2
21:34 71.1 °F 67.3 °F 29.98 in Calm     88% 0 in meteobridge W/m2
21:39 71.1 °F 67.3 °F 29.99 in Calm     88% 0 in meteobridge W/m2
21:44 70.9 °F 67.1 °F 29.99 in Calm     88% 0 in meteobridge W/m2
21:49 70.7 °F 66.9 °F 29.99 in Calm     88% 0 in meteobridge W/m2
21:54 70.5 °F 66.7 °F 29.99 in Calm     88% 0 in meteobridge W/m2
21:59 70.5 °F 66.7 °F 29.99 in Calm     88% 0 in meteobridge W/m2
22:04 70.3 °F 66.6 °F 29.99 in Calm     88% 0 in meteobridge W/m2
22:09 70.2 °F 66.4 °F 29.99 in Calm     88% 0 in meteobridge W/m2
22:14 70.2 °F 66.4 °F 29.99 in Calm     88% 0 in meteobridge W/m2
22:19 70 °F 66.2 °F 29.99 in Calm     88% 0 in meteobridge W/m2
22:24 69.8 °F 66 °F 29.99 in Calm     88% 0 in meteobridge W/m2
22:29 69.6 °F 65.8 °F 29.99 in Calm     88% 0 in meteobridge W/m2
22:34 69.6 °F 65.8 °F 29.99 in Calm     88% 0 in meteobridge W/m2
22:39 69.4 °F 65.7 °F 29.99 in Calm     88% 0 in meteobridge W/m2
22:44 69.4 °F 65.7 °F 29.99 in Calm     88% 0 in meteobridge W/m2
22:49 69.4 °F 65.7 °F 29.99 in Calm     88% 0 in meteobridge W/m2
22:54 69.3 °F 65.5 °F 29.99 in Calm     88% 0 in meteobridge W/m2
22:59 69.3 °F 65.5 °F 29.99 in Calm     88% 0 in meteobridge W/m2
23:04 69.3 °F 65.5 °F 29.99 in Calm     88% 0 in meteobridge W/m2
23:09 69.3 °F 65.5 °F 29.99 in Calm     88% 0 in meteobridge W/m2
23:14 69.3 °F 65.5 °F 29.99 in Calm     88% 0 in meteobridge W/m2
23:19 69.3 °F 65.5 °F 29.99 in Calm     88% 0 in meteobridge W/m2
23:24 69.3 °F 65.5 °F 29.99 in Calm     88% 0 in meteobridge W/m2
23:29 69.3 °F 65.5 °F 29.99 in Calm     88% 0 in meteobridge W/m2
23:34 69.4 °F 65.7 °F 29.99 in Calm     88% 0 in meteobridge W/m2
23:39 69.3 °F 65.5 °F 29.99 in Calm     88% 0 in meteobridge W/m2
23:44 69.4 °F 65.7 °F 29.99 in Calm     88% 0 in meteobridge W/m2
23:49 69.4 °F 65.7 °F 29.99 in Calm     88% 0 in meteobridge W/m2
23:54 69.4 °F 65.7 °F 29.99 in Calm     88% 0 in meteobridge W/m2
23:59 69.3 °F 65.5 °F 29.99 in Calm     88% 0 in meteobridge W/m2
EllijayWeather
Compliments of Weather Underground - 2.5 mb